sensor_id;sensor_type;location;lat;lon;timestamp;pressure;altitude;pressure_sealevel;temperature;humidity
53246;BME280;39569;51.090;-1.786;2022-08-19T00:00:48;100664.06;;;24.38;66.00
53246;BME280;39569;51.090;-1.786;2022-08-19T00:03:15;100664.00;;;24.90;64.31
53246;BME280;39569;51.090;-1.786;2022-08-19T00:05:44;100648.88;;;24.58;65.00
53246;BME280;39569;51.090;-1.786;2022-08-19T00:08:10;100657.03;;;24.53;65.04
53246;BME280;39569;51.090;-1.786;2022-08-19T00:10:37;100651.88;;;24.66;64.33
53246;BME280;39569;51.090;-1.786;2022-08-19T00:13:04;100647.06;;;24.78;64.17
53246;BME280;39569;51.090;-1.786;2022-08-19T00:15:31;100649.84;;;24.31;65.23
53246;BME280;39569;51.090;-1.786;2022-08-19T00:17:57;100648.59;;;24.54;64.62
53246;BME280;39569;51.090;-1.786;2022-08-19T00:20:24;100656.34;;;24.20;65.60
53246;BME280;39569;51.090;-1.786;2022-08-19T00:22:53;100657.97;;;24.21;65.35
53246;BME280;39569;51.090;-1.786;2022-08-19T00:25:21;100658.88;;;24.37;64.47
53246;BME280;39569;51.090;-1.786;2022-08-19T00:27:49;100656.50;;;24.61;63.90
53246;BME280;39569;51.090;-1.786;2022-08-19T00:30:16;100656.59;;;24.76;63.00
53246;BME280;39569;51.090;-1.786;2022-08-19T00:32:43;100658.88;;;24.37;64.11
53246;BME280;39569;51.090;-1.786;2022-08-19T00:35:10;100665.47;;;24.41;63.96
53246;BME280;39569;51.090;-1.786;2022-08-19T00:37:38;100661.19;;;24.65;64.28
53246;BME280;39569;51.090;-1.786;2022-08-19T00:40:11;100666.03;;;24.53;64.67
53246;BME280;39569;51.090;-1.786;2022-08-19T00:42:39;100662.25;;;24.59;64.54
53246;BME280;39569;51.090;-1.786;2022-08-19T00:45:10;100653.06;;;24.23;65.87
53246;BME280;39569;51.090;-1.786;2022-08-19T00:47:38;100651.69;;;24.16;65.97
53246;BME280;39569;51.090;-1.786;2022-08-19T00:50:06;100661.59;;;24.32;65.14
53246;BME280;39569;51.090;-1.786;2022-08-19T00:52:40;100656.88;;;24.17;65.91
53246;BME280;39569;51.090;-1.786;2022-08-19T00:55:14;100664.88;;;24.34;65.18
53246;BME280;39569;51.090;-1.786;2022-08-19T00:57:46;100656.22;;;24.52;64.48
53246;BME280;39569;51.090;-1.786;2022-08-19T01:00:17;100651.19;;;24.24;65.63
53246;BME280;39569;51.090;-1.786;2022-08-19T01:02:45;100656.13;;;24.27;65.36
53246;BME280;39569;51.090;-1.786;2022-08-19T01:05:14;100652.63;;;24.42;64.90
53246;BME280;39569;51.090;-1.786;2022-08-19T01:07:44;100655.56;;;24.25;65.19
53246;BME280;39569;51.090;-1.786;2022-08-19T01:10:15;100656.97;;;23.91;66.37
53246;BME280;39569;51.090;-1.786;2022-08-19T01:12:44;100655.59;;;24.40;64.83
53246;BME280;39569;51.090;-1.786;2022-08-19T01:15:15;100650.09;;;24.25;66.51
53246;BME280;39569;51.090;-1.786;2022-08-19T01:17:43;100653.38;;;23.80;68.67
53246;BME280;39569;51.090;-1.786;2022-08-19T01:20:13;100652.59;;;23.90;68.27
53246;BME280;39569;51.090;-1.786;2022-08-19T01:22:44;100646.91;;;23.96;67.62
53246;BME280;39569;51.090;-1.786;2022-08-19T01:25:13;100645.84;;;23.97;68.41
53246;BME280;39569;51.090;-1.786;2022-08-19T01:27:44;100654.78;;;23.88;69.65
53246;BME280;39569;51.090;-1.786;2022-08-19T01:30:14;100644.63;;;23.83;69.98
53246;BME280;39569;51.090;-1.786;2022-08-19T01:32:42;100647.09;;;23.43;69.56
53246;BME280;39569;51.090;-1.786;2022-08-19T01:35:11;100655.13;;;23.60;69.33
53246;BME280;39569;51.090;-1.786;2022-08-19T01:37:45;100655.59;;;23.52;69.16
53246;BME280;39569;51.090;-1.786;2022-08-19T01:40:12;100656.34;;;23.42;69.43
53246;BME280;39569;51.090;-1.786;2022-08-19T01:42:39;100661.34;;;23.55;69.13
53246;BME280;39569;51.090;-1.786;2022-08-19T01:45:06;100648.25;;;23.52;69.00
53246;BME280;39569;51.090;-1.786;2022-08-19T01:47:34;100649.66;;;23.60;68.46
53246;BME280;39569;51.090;-1.786;2022-08-19T01:50:01;100654.66;;;23.68;67.88
53246;BME280;39569;51.090;-1.786;2022-08-19T01:52:29;100662.13;;;23.87;67.59
53246;BME280;39569;51.090;-1.786;2022-08-19T01:54:57;100658.72;;;23.70;68.27
53246;BME280;39569;51.090;-1.786;2022-08-19T01:57:24;100668.97;;;23.90;67.24
53246;BME280;39569;51.090;-1.786;2022-08-19T01:59:51;100662.75;;;23.99;66.30
53246;BME280;39569;51.090;-1.786;2022-08-19T02:02:19;100664.25;;;24.17;65.92
53246;BME280;39569;51.090;-1.786;2022-08-19T02:04:46;100660.97;;;24.15;66.17
53246;BME280;39569;51.090;-1.786;2022-08-19T02:07:13;100662.09;;;24.19;65.46
53246;BME280;39569;51.090;-1.786;2022-08-19T02:09:40;100657.97;;;24.21;65.81
53246;BME280;39569;51.090;-1.786;2022-08-19T02:12:08;100659.72;;;23.96;65.08
53246;BME280;39569;51.090;-1.786;2022-08-19T02:14:35;100659.41;;;23.87;65.98
53246;BME280;39569;51.090;-1.786;2022-08-19T02:17:02;100665.25;;;24.01;65.42
53246;BME280;39569;51.090;-1.786;2022-08-19T02:19:29;100668.38;;;23.83;66.17
53246;BME280;39569;51.090;-1.786;2022-08-19T02:21:57;100678.53;;;23.92;65.61
53246;BME280;39569;51.090;-1.786;2022-08-19T02:24:24;100670.59;;;23.91;65.30
53246;BME280;39569;51.090;-1.786;2022-08-19T02:26:50;100673.00;;;24.19;65.15
53246;BME280;39569;51.090;-1.786;2022-08-19T02:29:19;100676.28;;;24.21;64.19
53246;BME280;39569;51.090;-1.786;2022-08-19T02:31:46;100673.44;;;24.01;65.11
53246;BME280;39569;51.090;-1.786;2022-08-19T02:34:13;100672.59;;;24.00;64.78
53246;BME280;39569;51.090;-1.786;2022-08-19T02:36:40;100672.63;;;24.05;65.48
53246;BME280;39569;51.090;-1.786;2022-08-19T02:39:06;100678.22;;;23.84;65.12
53246;BME280;39569;51.090;-1.786;2022-08-19T02:41:33;100673.03;;;23.87;64.78
53246;BME280;39569;51.090;-1.786;2022-08-19T02:44:01;100668.38;;;23.83;65.24
53246;BME280;39569;51.090;-1.786;2022-08-19T02:46:33;100665.75;;;23.98;64.73
53246;BME280;39569;51.090;-1.786;2022-08-19T02:49:01;100664.19;;;23.33;66.32
53246;BME280;39569;51.090;-1.786;2022-08-19T02:51:37;100666.63;;;23.35;65.93
53246;BME280;39569;51.090;-1.786;2022-08-19T02:54:05;100661.44;;;23.33;66.31
53246;BME280;39569;51.090;-1.786;2022-08-19T02:56:34;100667.03;;;23.22;66.47
53246;BME280;39569;51.090;-1.786;2022-08-19T02:59:02;100663.56;;;22.73;67.79
53246;BME280;39569;51.090;-1.786;2022-08-19T03:01:32;100663.44;;;23.16;66.70
53246;BME280;39569;51.090;-1.786;2022-08-19T03:04:02;100669.59;;;23.07;66.71
53246;BME280;39569;51.090;-1.786;2022-08-19T03:06:29;100681.53;;;23.27;67.06
53246;BME280;39569;51.090;-1.786;2022-08-19T03:08:58;100681.19;;;23.19;67.37
53246;BME280;39569;51.090;-1.786;2022-08-19T03:11:27;100691.72;;;23.37;65.76
53246;BME280;39569;51.090;-1.786;2022-08-19T03:13:54;100683.69;;;23.52;65.19
53246;BME280;39569;51.090;-1.786;2022-08-19T03:16:23;100684.53;;;23.53;65.69
53246;BME280;39569;51.090;-1.786;2022-08-19T03:18:53;100678.88;;;23.64;65.02
53246;BME280;39569;51.090;-1.786;2022-08-19T03:21:23;100683.16;;;23.55;65.67
53246;BME280;39569;51.090;-1.786;2022-08-19T03:23:50;100690.84;;;23.05;67.54
53246;BME280;39569;51.090;-1.786;2022-08-19T03:26:20;100689.84;;;23.37;67.45
53246;BME280;39569;51.090;-1.786;2022-08-19T03:28:47;100689.28;;;23.35;68.56
53246;BME280;39569;51.090;-1.786;2022-08-19T03:31:16;100699.56;;;23.07;70.54
53246;BME280;39569;51.090;-1.786;2022-08-19T03:33:43;100702.81;;;23.04;70.29
53246;BME280;39569;51.090;-1.786;2022-08-19T03:36:14;100709.84;;;22.73;70.33
53246;BME280;39569;51.090;-1.786;2022-08-19T03:38:44;100706.94;;;22.58;71.20
53246;BME280;39569;51.090;-1.786;2022-08-19T03:41:13;100705.13;;;22.47;70.57
53246;BME280;39569;51.090;-1.786;2022-08-19T03:43:41;100695.84;;;22.65;69.77
53246;BME280;39569;51.090;-1.786;2022-08-19T03:46:11;100700.47;;;22.86;69.05
53246;BME280;39569;51.090;-1.786;2022-08-19T03:48:40;100707.50;;;22.60;69.09
53246;BME280;39569;51.090;-1.786;2022-08-19T03:51:16;100705.41;;;22.67;69.67
53246;BME280;39569;51.090;-1.786;2022-08-19T03:53:45;100703.22;;;22.91;68.06
53246;BME280;39569;51.090;-1.786;2022-08-19T03:56:13;100704.22;;;23.06;68.27
53246;BME280;39569;51.090;-1.786;2022-08-19T03:58:40;100706.25;;;22.94;68.62
53246;BME280;39569;51.090;-1.786;2022-08-19T04:01:08;100701.84;;;22.67;69.20
53246;BME280;39569;51.090;-1.786;2022-08-19T04:03:37;100711.03;;;23.09;68.06
53246;BME280;39569;51.090;-1.786;2022-08-19T04:06:10;100707.97;;;23.00;68.18
53246;BME280;39569;51.090;-1.786;2022-08-19T04:08:39;100715.41;;;23.31;67.66
53246;BME280;39569;51.090;-1.786;2022-08-19T04:11:07;100707.56;;;23.13;67.52
53246;BME280;39569;51.090;-1.786;2022-08-19T04:13:34;100715.13;;;22.85;68.11
53246;BME280;39569;51.090;-1.786;2022-08-19T04:16:01;100716.50;;;23.09;67.67
53246;BME280;39569;51.090;-1.786;2022-08-19T04:18:28;100713.06;;;23.18;67.62
53246;BME280;39569;51.090;-1.786;2022-08-19T04:20:56;100715.91;;;22.59;69.32
53246;BME280;39569;51.090;-1.786;2022-08-19T04:23:23;100715.25;;;22.95;68.04
53246;BME280;39569;51.090;-1.786;2022-08-19T04:25:51;100708.22;;;22.99;67.77
53246;BME280;39569;51.090;-1.786;2022-08-19T04:28:18;100706.78;;;22.91;67.57
53246;BME280;39569;51.090;-1.786;2022-08-19T04:30:48;100716.09;;;22.74;68.08
53246;BME280;39569;51.090;-1.786;2022-08-19T04:33:19;100714.19;;;22.96;67.32
53246;BME280;39569;51.090;-1.786;2022-08-19T04:35:47;100718.50;;;22.70;67.26
53246;BME280;39569;51.090;-1.786;2022-08-19T04:38:16;100711.31;;;22.81;67.32
53246;BME280;39569;51.090;-1.786;2022-08-19T04:40:46;100720.34;;;22.65;67.98
53246;BME280;39569;51.090;-1.786;2022-08-19T04:43:33;100716.53;;;22.87;67.48
53246;BME280;39569;51.090;-1.786;2022-08-19T04:46:04;100712.94;;;22.82;66.40
53246;BME280;39569;51.090;-1.786;2022-08-19T04:48:31;100721.28;;;22.97;66.54
53246;BME280;39569;51.090;-1.786;2022-08-19T04:50:58;100722.09;;;22.54;67.61
53246;BME280;39569;51.090;-1.786;2022-08-19T04:53:25;100733.41;;;22.46;68.01
53246;BME280;39569;51.090;-1.786;2022-08-19T04:55:54;100741.59;;;22.08;68.55
53246;BME280;39569;51.090;-1.786;2022-08-19T04:58:21;100738.53;;;22.42;67.98
53246;BME280;39569;51.090;-1.786;2022-08-19T05:00:50;100737.94;;;22.57;68.21
53246;BME280;39569;51.090;-1.786;2022-08-19T05:03:17;100741.56;;;22.63;67.50
53246;BME280;39569;51.090;-1.786;2022-08-19T05:05:45;100745.78;;;22.75;67.43
53246;BME280;39569;51.090;-1.786;2022-08-19T05:08:15;100742.59;;;22.57;67.77
53246;BME280;39569;51.090;-1.786;2022-08-19T05:10:46;100739.72;;;22.68;67.38
53246;BME280;39569;51.090;-1.786;2022-08-19T05:13:13;100744.19;;;22.36;67.58
53246;BME280;39569;51.090;-1.786;2022-08-19T05:15:40;100746.97;;;22.41;67.95
53246;BME280;39569;51.090;-1.786;2022-08-19T05:18:08;100752.19;;;22.64;67.79
53246;BME280;39569;51.090;-1.786;2022-08-19T05:20:53;100755.50;;;22.66;67.37
53246;BME280;39569;51.090;-1.786;2022-08-19T05:23:37;100759.25;;;22.60;68.68
53246;BME280;39569;51.090;-1.786;2022-08-19T05:26:04;100769.94;;;22.88;66.89
53246;BME280;39569;51.090;-1.786;2022-08-19T05:28:31;100763.41;;;23.11;65.75
53246;BME280;39569;51.090;-1.786;2022-08-19T05:30:57;100764.63;;;22.98;66.49
53246;BME280;39569;51.090;-1.786;2022-08-19T05:33:26;100774.00;;;22.86;66.68
53246;BME280;39569;51.090;-1.786;2022-08-19T05:35:52;100770.09;;;22.77;66.44
53246;BME280;39569;51.090;-1.786;2022-08-19T05:38:19;100775.94;;;22.90;66.60
53246;BME280;39569;51.090;-1.786;2022-08-19T05:40:46;100776.50;;;22.49;66.08
53246;BME280;39569;51.090;-1.786;2022-08-19T05:43:13;100775.47;;;22.93;65.78
53246;BME280;39569;51.090;-1.786;2022-08-19T05:45:41;100779.00;;;22.72;66.31
53246;BME280;39569;51.090;-1.786;2022-08-19T05:48:09;100790.72;;;22.73;66.66
53246;BME280;39569;51.090;-1.786;2022-08-19T05:50:39;100773.81;;;22.92;65.31
53246;BME280;39569;51.090;-1.786;2022-08-19T05:53:06;100774.25;;;22.84;66.01
53246;BME280;39569;51.090;-1.786;2022-08-19T05:55:34;100774.56;;;22.88;65.37
53246;BME280;39569;51.090;-1.786;2022-08-19T05:58:03;100778.00;;;22.78;65.08
53246;BME280;39569;51.090;-1.786;2022-08-19T06:00:32;100777.38;;;22.55;65.33
53246;BME280;39569;51.090;-1.786;2022-08-19T06:02:59;100783.31;;;22.90;64.84
53246;BME280;39569;51.090;-1.786;2022-08-19T06:05:28;100784.84;;;22.81;65.49
53246;BME280;39569;51.090;-1.786;2022-08-19T06:07:57;100781.47;;;22.95;64.11
53246;BME280;39569;51.090;-1.786;2022-08-19T06:10:24;100780.75;;;23.05;63.80
53246;BME280;39569;51.090;-1.786;2022-08-19T06:12:52;100778.88;;;23.05;63.89
53246;BME280;39569;51.090;-1.786;2022-08-19T06:15:19;100780.72;;;22.78;64.40
53246;BME280;39569;51.090;-1.786;2022-08-19T06:17:47;100781.97;;;22.71;63.95
53246;BME280;39569;51.090;-1.786;2022-08-19T06:20:14;100785.91;;;22.80;63.34
53246;BME280;39569;51.090;-1.786;2022-08-19T06:22:46;100783.91;;;22.37;64.94
53246;BME280;39569;51.090;-1.786;2022-08-19T06:25:15;100781.25;;;22.42;64.69
53246;BME280;39569;51.090;-1.786;2022-08-19T06:27:42;100782.00;;;22.54;64.07
53246;BME280;39569;51.090;-1.786;2022-08-19T06:30:10;100782.00;;;22.54;64.83
53246;BME280;39569;51.090;-1.786;2022-08-19T06:32:37;100778.31;;;22.60;64.51
53246;BME280;39569;51.090;-1.786;2022-08-19T06:35:05;100794.13;;;22.46;64.56
53246;BME280;39569;51.090;-1.786;2022-08-19T06:37:32;100790.25;;;22.42;63.60
53246;BME280;39569;51.090;-1.786;2022-08-19T06:39:59;100786.66;;;22.75;62.42
53246;BME280;39569;51.090;-1.786;2022-08-19T06:42:27;100786.66;;;22.75;63.06
53246;BME280;39569;51.090;-1.786;2022-08-19T06:44:54;100796.16;;;22.01;64.52
53246;BME280;39569;51.090;-1.786;2022-08-19T06:47:21;100786.00;;;22.30;63.88
53246;BME280;39569;51.090;-1.786;2022-08-19T06:49:48;100802.31;;;22.46;63.86
53246;BME280;39569;51.090;-1.786;2022-08-19T06:52:15;100801.16;;;22.59;63.65
53246;BME280;39569;51.090;-1.786;2022-08-19T06:54:42;100801.88;;;22.71;63.46
53246;BME280;39569;51.090;-1.786;2022-08-19T06:57:09;100801.88;;;22.93;61.94
53246;BME280;39569;51.090;-1.786;2022-08-19T06:59:41;100799.47;;;23.39;60.93
53246;BME280;39569;51.090;-1.786;2022-08-19T07:02:08;100802.44;;;23.16;62.15
53246;BME280;39569;51.090;-1.786;2022-08-19T07:04:35;100808.44;;;23.18;61.31
53246;BME280;39569;51.090;-1.786;2022-08-19T07:07:05;100817.56;;;23.51;60.09
53246;BME280;39569;51.090;-1.786;2022-08-19T07:09:35;100823.16;;;23.39;61.57
53246;BME280;39569;51.090;-1.786;2022-08-19T07:12:05;100823.22;;;23.71;60.44
53246;BME280;39569;51.090;-1.786;2022-08-19T07:14:33;100818.38;;;23.51;59.77
53246;BME280;39569;51.090;-1.786;2022-08-19T07:17:05;100824.94;;;23.77;59.75
53246;BME280;39569;51.090;-1.786;2022-08-19T07:19:33;100823.59;;;23.53;61.03
53246;BME280;39569;51.090;-1.786;2022-08-19T07:22:03;100822.34;;;23.38;59.24
53246;BME280;39569;51.090;-1.786;2022-08-19T07:24:30;100816.59;;;23.62;58.48
53246;BME280;39569;51.090;-1.786;2022-08-19T07:26:59;100825.28;;;23.85;59.19
53246;BME280;39569;51.090;-1.786;2022-08-19T07:29:30;100828.75;;;24.02;58.08
53246;BME280;39569;51.090;-1.786;2022-08-19T07:31:58;100832.97;;;24.20;57.34
53246;BME280;39569;51.090;-1.786;2022-08-19T07:34:28;100829.53;;;23.71;56.73
53246;BME280;39569;51.090;-1.786;2022-08-19T07:36:55;100825.84;;;23.61;58.17
53246;BME280;39569;51.090;-1.786;2022-08-19T07:39:25;100827.78;;;23.38;56.30
53246;BME280;39569;51.090;-1.786;2022-08-19T07:41:53;100832.03;;;24.04;53.93
53246;BME280;39569;51.090;-1.786;2022-08-19T07:44:20;100836.72;;;23.82;53.72
53246;BME280;39569;51.090;-1.786;2022-08-19T07:46:50;100834.66;;;24.26;52.76
53246;BME280;39569;51.090;-1.786;2022-08-19T07:49:18;100830.91;;;24.37;51.68
53246;BME280;39569;51.090;-1.786;2022-08-19T07:51:49;100836.56;;;24.25;50.70
53246;BME280;39569;51.090;-1.786;2022-08-19T07:54:17;100824.53;;;24.63;49.91
53246;BME280;39569;51.090;-1.786;2022-08-19T07:56:44;100823.03;;;25.39;49.72
53246;BME280;39569;51.090;-1.786;2022-08-19T07:59:11;100827.22;;;25.82;48.55
53246;BME280;39569;51.090;-1.786;2022-08-19T08:01:39;100827.81;;;26.14;47.61
53246;BME280;39569;51.090;-1.786;2022-08-19T08:04:06;100839.19;;;25.56;47.09
53246;BME280;39569;51.090;-1.786;2022-08-19T08:06:52;100837.81;;;25.38;47.78
53246;BME280;39569;51.090;-1.786;2022-08-19T08:09:39;100839.00;;;25.05;46.80
53246;BME280;39569;51.090;-1.786;2022-08-19T08:12:08;100838.72;;;25.07;48.37
53246;BME280;39569;51.090;-1.786;2022-08-19T08:14:38;100849.59;;;25.54;45.92
53246;BME280;39569;51.090;-1.786;2022-08-19T08:17:07;100855.47;;;26.17;44.19
53246;BME280;39569;51.090;-1.786;2022-08-19T08:19:35;100854.09;;;26.15;43.95
53246;BME280;39569;51.090;-1.786;2022-08-19T08:22:03;100849.13;;;26.02;43.55
53246;BME280;39569;51.090;-1.786;2022-08-19T08:24:32;100858.44;;;26.01;43.10
53246;BME280;39569;51.090;-1.786;2022-08-19T08:27:00;100858.66;;;25.74;43.39
53246;BME280;39569;51.090;-1.786;2022-08-19T08:29:29;100865.25;;;25.78;43.57
53246;BME280;39569;51.090;-1.786;2022-08-19T08:31:56;100859.97;;;25.42;44.39
53246;BME280;39569;51.090;-1.786;2022-08-19T08:34:23;100852.88;;;25.56;44.38
53246;BME280;39569;51.090;-1.786;2022-08-19T08:36:50;100862.25;;;25.03;43.24
53246;BME280;39569;51.090;-1.786;2022-08-19T08:39:20;100871.38;;;24.77;45.89
53246;BME280;39569;51.090;-1.786;2022-08-19T08:41:51;100863.16;;;25.28;43.89
53246;BME280;39569;51.090;-1.786;2022-08-19T08:44:23;100871.31;;;25.13;43.18
53246;BME280;39569;51.090;-1.786;2022-08-19T08:46:58;100876.84;;;25.33;43.37
53246;BME280;39569;51.090;-1.786;2022-08-19T08:49:30;100874.59;;;25.15;42.08
53246;BME280;39569;51.090;-1.786;2022-08-19T08:52:03;100871.44;;;25.39;41.62
53246;BME280;39569;51.090;-1.786;2022-08-19T08:54:37;100874.75;;;25.51;40.55
53246;BME280;39569;51.090;-1.786;2022-08-19T08:57:10;100881.41;;;25.85;39.72
53246;BME280;39569;51.090;-1.786;2022-08-19T08:59:40;100878.13;;;25.98;38.79
53246;BME280;39569;51.090;-1.786;2022-08-19T09:02:08;100880.63;;;26.50;38.68
53246;BME280;39569;51.090;-1.786;2022-08-19T09:04:35;100871.84;;;26.83;36.79
53246;BME280;39569;51.090;-1.786;2022-08-19T09:07:17;100876.00;;;26.60;36.97
53246;BME280;39569;51.090;-1.786;2022-08-19T09:09:51;100878.41;;;26.01;36.82
53246;BME280;39569;51.090;-1.786;2022-08-19T09:12:26;100869.09;;;27.57;36.94
53246;BME280;39569;51.090;-1.786;2022-08-19T09:14:57;100869.41;;;28.33;34.42
53246;BME280;39569;51.090;-1.786;2022-08-19T09:17:28;100874.78;;;28.48;34.44
53246;BME280;39569;51.090;-1.786;2022-08-19T09:20:00;100871.78;;;28.44;32.98
53246;BME280;39569;51.090;-1.786;2022-08-19T09:22:30;100864.44;;;28.35;34.25
53246;BME280;39569;51.090;-1.786;2022-08-19T09:24:58;100868.59;;;29.18;32.52
53246;BME280;39569;51.090;-1.786;2022-08-19T09:27:26;100868.66;;;28.84;31.02
53246;BME280;39569;51.090;-1.786;2022-08-19T09:29:54;100872.69;;;29.21;31.32
53246;BME280;39569;51.090;-1.786;2022-08-19T09:32:21;100876.16;;;28.50;31.50
53246;BME280;39569;51.090;-1.786;2022-08-19T09:34:49;100872.25;;;29.08;30.66
53246;BME280;39569;51.090;-1.786;2022-08-19T09:37:20;100884.16;;;28.47;31.34
53246;BME280;39569;51.090;-1.786;2022-08-19T09:39:47;100891.66;;;28.02;33.24
53246;BME280;39569;51.090;-1.786;2022-08-19T09:42:15;100890.03;;;28.35;32.25
53246;BME280;39569;51.090;-1.786;2022-08-19T09:44:42;100886.53;;;28.25;31.50
53246;BME280;39569;51.090;-1.786;2022-08-19T09:47:11;100882.47;;;28.17;31.40
53246;BME280;39569;51.090;-1.786;2022-08-19T09:49:39;100887.97;;;28.79;33.29
53246;BME280;39569;51.090;-1.786;2022-08-19T09:52:08;100888.69;;;30.17;29.91
53246;BME280;39569;51.090;-1.786;2022-08-19T09:54:37;100885.75;;;29.05;30.01
53246;BME280;39569;51.090;-1.786;2022-08-19T09:57:04;100887.44;;;28.77;31.92
53246;BME280;39569;51.090;-1.786;2022-08-19T09:59:33;100883.88;;;29.90;27.47
53246;BME280;39569;51.090;-1.786;2022-08-19T10:02:00;100890.03;;;30.38;26.82
53246;BME280;39569;51.090;-1.786;2022-08-19T10:04:27;100890.81;;;29.45;28.04
53246;BME280;39569;51.090;-1.786;2022-08-19T10:07:15;100900.47;;;30.86;27.84
53246;BME280;39569;51.090;-1.786;2022-08-19T10:09:42;100892.13;;;31.59;25.53
53246;BME280;39569;51.090;-1.786;2022-08-19T10:12:08;100880.78;;;31.20;25.82
53246;BME280;39569;51.090;-1.786;2022-08-19T10:14:37;100886.59;;;31.05;27.64
53246;BME280;39569;51.090;-1.786;2022-08-19T10:17:04;100890.22;;;32.40;26.42
53246;BME280;39569;51.090;-1.786;2022-08-19T10:19:31;100889.03;;;31.61;25.13
53246;BME280;39569;51.090;-1.786;2022-08-19T10:22:03;100889.44;;;30.86;25.68
53246;BME280;39569;51.090;-1.786;2022-08-19T10:24:30;100883.31;;;31.57;25.31
53246;BME280;39569;51.090;-1.786;2022-08-19T10:26:57;100886.81;;;32.65;23.41
53246;BME280;39569;51.090;-1.786;2022-08-19T10:29:24;100883.25;;;32.20;23.21
53246;BME280;39569;51.090;-1.786;2022-08-19T10:31:55;100885.44;;;33.63;21.50
53246;BME280;39569;51.090;-1.786;2022-08-19T10:34:23;100887.06;;;32.55;24.79
53246;BME280;39569;51.090;-1.786;2022-08-19T10:36:50;100892.53;;;32.68;23.70
53246;BME280;39569;51.090;-1.786;2022-08-19T10:39:17;100898.84;;;31.80;23.73
53246;BME280;39569;51.090;-1.786;2022-08-19T10:41:43;100888.28;;;33.41;21.78
53246;BME280;39569;51.090;-1.786;2022-08-19T10:44:12;100894.72;;;33.58;24.38
53246;BME280;39569;51.090;-1.786;2022-08-19T10:46:40;100900.22;;;31.15;26.41
53246;BME280;39569;51.090;-1.786;2022-08-19T10:49:10;100888.16;;;32.67;22.32
53246;BME280;39569;51.090;-1.786;2022-08-19T10:51:38;100885.47;;;33.80;22.05
53246;BME280;39569;51.090;-1.786;2022-08-19T10:54:22;100877.00;;;33.29;22.27
53246;BME280;39569;51.090;-1.786;2022-08-19T10:57:09;100881.38;;;33.78;22.10
53246;BME280;39569;51.090;-1.786;2022-08-19T10:59:34;100884.47;;;33.20;22.19
53246;BME280;39569;51.090;-1.786;2022-08-19T11:02:04;100894.94;;;33.23;22.26
53246;BME280;39569;51.090;-1.786;2022-08-19T11:04:33;100897.66;;;32.83;23.25
53246;BME280;39569;51.090;-1.786;2022-08-19T11:06:59;100896.47;;;31.74;22.67
53246;BME280;39569;51.090;-1.786;2022-08-19T11:09:27;100883.78;;;32.44;23.13
53246;BME280;39569;51.090;-1.786;2022-08-19T11:11:54;100895.25;;;32.91;22.70
53246;BME280;39569;51.090;-1.786;2022-08-19T11:14:22;100891.94;;;33.11;22.96
53246;BME280;39569;51.090;-1.786;2022-08-19T11:16:51;100885.44;;;33.71;21.08
53246;BME280;39569;51.090;-1.786;2022-08-19T11:19:21;100892.97;;;34.56;21.99
53246;BME280;39569;51.090;-1.786;2022-08-19T11:21:51;100892.81;;;34.99;20.76
53246;BME280;39569;51.090;-1.786;2022-08-19T11:24:21;100892.34;;;35.64;20.88
53246;BME280;39569;51.090;-1.786;2022-08-19T11:26:50;100898.97;;;34.67;20.95
53246;BME280;39569;51.090;-1.786;2022-08-19T11:29:20;100886.59;;;33.88;22.71
53246;BME280;39569;51.090;-1.786;2022-08-19T11:31:49;100889.50;;;33.48;21.54
53246;BME280;39569;51.090;-1.786;2022-08-19T11:34:19;100890.19;;;34.56;21.76
53246;BME280;39569;51.090;-1.786;2022-08-19T11:36:47;100886.31;;;34.06;21.79
53246;BME280;39569;51.090;-1.786;2022-08-19T11:39:18;100894.13;;;33.31;22.24
53246;BME280;39569;51.090;-1.786;2022-08-19T11:41:46;100893.84;;;33.41;22.88
53246;BME280;39569;51.090;-1.786;2022-08-19T11:44:13;100883.19;;;34.25;22.16
53246;BME280;39569;51.090;-1.786;2022-08-19T11:46:42;100890.81;;;32.81;22.93
53246;BME280;39569;51.090;-1.786;2022-08-19T11:49:10;100894.63;;;34.06;22.18
53246;BME280;39569;51.090;-1.786;2022-08-19T11:51:38;100902.59;;;33.82;21.81
53246;BME280;39569;51.090;-1.786;2022-08-19T11:54:07;100889.16;;;31.56;24.71
53246;BME280;39569;51.090;-1.786;2022-08-19T11:56:36;100896.81;;;31.32;23.68
53246;BME280;39569;51.090;-1.786;2022-08-19T11:59:04;100898.53;;;32.93;22.17
53246;BME280;39569;51.090;-1.786;2022-08-19T12:01:31;100894.00;;;33.36;23.37
53246;BME280;39569;51.090;-1.786;2022-08-19T12:03:58;100898.56;;;32.70;23.29
53246;BME280;39569;51.090;-1.786;2022-08-19T12:06:28;100890.53;;;34.21;21.50
53246;BME280;39569;51.090;-1.786;2022-08-19T12:08:56;100899.72;;;32.47;25.12
53246;BME280;39569;51.090;-1.786;2022-08-19T12:11:23;100894.50;;;31.39;25.36
53246;BME280;39569;51.090;-1.786;2022-08-19T12:13:53;100899.59;;;31.18;26.04
53246;BME280;39569;51.090;-1.786;2022-08-19T12:16:23;100905.91;;;30.59;26.36
53246;BME280;39569;51.090;-1.786;2022-08-19T12:18:50;100903.88;;;33.20;23.74
53246;BME280;39569;51.090;-1.786;2022-08-19T12:21:20;100906.44;;;31.34;24.54
53246;BME280;39569;51.090;-1.786;2022-08-19T12:23:48;100909.59;;;31.28;27.14
53246;BME280;39569;51.090;-1.786;2022-08-19T12:26:16;100906.91;;;31.91;24.82
53246;BME280;39569;51.090;-1.786;2022-08-19T12:28:43;100913.81;;;29.78;27.74
53246;BME280;39569;51.090;-1.786;2022-08-19T12:31:12;100908.91;;;29.93;27.83
53246;BME280;39569;51.090;-1.786;2022-08-19T12:33:39;100920.97;;;30.99;26.44
53246;BME280;39569;51.090;-1.786;2022-08-19T12:36:09;100906.59;;;33.03;24.86
53246;BME280;39569;51.090;-1.786;2022-08-19T12:38:37;100906.81;;;32.40;24.06
53246;BME280;39569;51.090;-1.786;2022-08-19T12:41:05;100895.88;;;33.66;22.12
53246;BME280;39569;51.090;-1.786;2022-08-19T12:43:32;100889.41;;;31.95;24.22
53246;BME280;39569;51.090;-1.786;2022-08-19T12:46:00;100891.66;;;31.93;25.33
53246;BME280;39569;51.090;-1.786;2022-08-19T12:48:28;100909.41;;;31.11;25.26